createdAt,value
2023-03-19T00:00:13.084Z,475.00
2023-03-19T00:00:43.211Z,476.00
2023-03-19T00:01:13.211Z,478.00
2023-03-19T00:01:46.358Z,479.00
2023-03-19T00:02:17.786Z,479.00
2023-03-19T00:02:43.387Z,477.00
2023-03-19T00:03:13.594Z,475.00
2023-03-19T00:03:43.630Z,473.00
2023-03-19T00:04:13.611Z,473.00
2023-03-19T00:04:43.723Z,472.00
2023-03-19T00:05:13.782Z,470.00
2023-03-19T00:05:43.913Z,470.00
2023-03-19T00:06:13.895Z,468.00
2023-03-19T00:06:44.022Z,468.00
2023-03-19T00:07:14.140Z,469.00
2023-03-19T00:07:44.245Z,472.00
2023-03-19T00:08:14.375Z,472.00
2023-03-19T00:08:44.371Z,472.00
2023-03-19T00:09:14.487Z,473.00
2023-03-19T00:09:44.665Z,475.00
2023-03-19T00:10:14.500Z,476.00
2023-03-19T00:10:44.613Z,478.00
2023-03-19T00:11:14.720Z,480.00
2023-03-19T00:11:44.720Z,480.00
2023-03-19T00:12:14.833Z,481.00
2023-03-19T00:12:44.940Z,481.00
2023-03-19T00:13:15.057Z,480.00
2023-03-19T00:13:45.172Z,479.00
2023-03-19T00:14:15.282Z,478.00
2023-03-19T00:14:45.407Z,479.00
2023-03-19T00:15:15.460Z,480.00
2023-03-19T00:15:45.477Z,482.00
2023-03-19T00:16:15.503Z,483.00
2023-03-19T00:16:45.530Z,482.00
2023-03-19T00:17:15.543Z,480.00
2023-03-19T00:17:45.632Z,479.00
2023-03-19T00:18:15.683Z,477.00
2023-03-19T00:18:45.760Z,479.00
2023-03-19T00:19:15.837Z,477.00
2023-03-19T00:19:45.924Z,475.00
2023-03-19T00:20:15.990Z,476.00
2023-03-19T00:20:46.085Z,479.00
2023-03-19T00:21:16.160Z,478.00
2023-03-19T00:21:46.274Z,477.00
2023-03-19T00:22:16.332Z,474.00
2023-03-19T00:22:46.416Z,475.00
2023-03-19T00:23:16.507Z,475.00
2023-03-19T00:23:46.665Z,475.00
2023-03-19T00:24:16.591Z,478.00
2023-03-19T00:24:46.684Z,475.00
2023-03-19T00:25:16.782Z,476.00
2023-03-19T00:25:46.884Z,476.00
2023-03-19T00:26:16.967Z,475.00
2023-03-19T00:26:47.063Z,474.00
2023-03-19T00:27:17.166Z,475.00
2023-03-19T00:27:47.290Z,475.00
2023-03-19T00:28:17.398Z,474.00
2023-03-19T00:28:47.512Z,477.00
2023-03-19T00:29:17.547Z,476.00
2023-03-19T00:29:47.674Z,476.00
2023-03-19T00:30:17.676Z,475.00
2023-03-19T00:30:47.849Z,475.00
2023-03-19T00:31:17.832Z,474.00
2023-03-19T00:31:47.941Z,474.00
2023-03-19T00:32:18.067Z,475.00
2023-03-19T00:32:48.179Z,472.00
2023-03-19T00:33:18.066Z,474.00
2023-03-19T00:33:48.205Z,472.00
2023-03-19T00:34:18.248Z,469.00
2023-03-19T00:34:48.232Z,462.00
2023-03-19T00:35:18.341Z,460.00
2023-03-19T00:35:48.497Z,460.00
2023-03-19T00:36:18.481Z,460.00
2023-03-19T00:36:48.468Z,462.00
2023-03-19T00:37:18.484Z,462.00
2023-03-19T00:37:48.599Z,463.00
2023-03-19T00:38:18.711Z,465.00
2023-03-19T00:38:48.818Z,465.00
2023-03-19T00:39:18.930Z,463.00
2023-03-19T00:39:49.043Z,465.00
2023-03-19T00:40:19.167Z,465.00
2023-03-19T00:40:49.334Z,464.00
2023-03-19T00:41:19.296Z,463.00
2023-03-19T00:41:49.401Z,460.00
2023-03-19T00:42:19.514Z,460.00
2023-03-19T00:42:49.624Z,460.00
2023-03-19T00:43:19.766Z,464.00
2023-03-19T00:43:49.767Z,467.00
2023-03-19T00:44:19.877Z,470.00
2023-03-19T00:44:49.997Z,471.00
2023-03-19T00:45:20.123Z,470.00
2023-03-19T00:45:50.258Z,469.00
2023-03-19T00:46:20.295Z,469.00
2023-03-19T00:46:50.281Z,468.00
2023-03-19T00:47:20.410Z,468.00
2023-03-19T00:47:50.416Z,468.00
2023-03-19T00:48:20.508Z,467.00
2023-03-19T00:48:50.629Z,467.00
2023-03-19T00:49:20.734Z,469.00
2023-03-19T00:49:50.845Z,471.00
2023-03-19T00:50:20.966Z,472.00
2023-03-19T00:50:51.081Z,471.00
2023-03-19T00:51:21.076Z,470.00
2023-03-19T00:51:51.179Z,470.00
2023-03-19T00:52:21.286Z,472.00
2023-03-19T00:52:51.397Z,472.00
2023-03-19T00:53:21.407Z,473.00
2023-03-19T00:53:51.516Z,474.00
2023-03-19T00:54:21.628Z,475.00
2023-03-19T00:54:51.740Z,474.00
2023-03-19T00:55:21.850Z,472.00
2023-03-19T00:55:51.987Z,470.00
2023-03-19T00:56:22.083Z,471.00
2023-03-19T00:56:52.097Z,472.00
2023-03-19T00:57:22.246Z,471.00
2023-03-19T00:57:52.282Z,470.00
2023-03-19T00:58:22.248Z,472.00
2023-03-19T00:58:52.244Z,475.00
2023-03-19T00:59:22.365Z,473.00
2023-03-19T00:59:52.471Z,474.00
2023-03-19T01:00:22.585Z,473.00
2023-03-19T01:00:52.697Z,473.00
2023-03-19T01:01:22.781Z,474.00
2023-03-19T01:01:52.745Z,475.00
2023-03-19T01:02:22.855Z,473.00
2023-03-19T01:02:52.967Z,472.00
2023-03-19T01:03:23.073Z,472.00
2023-03-19T01:03:53.188Z,471.00
2023-03-19T01:04:23.442Z,469.00
2023-03-19T01:04:53.322Z,471.00
2023-03-19T01:05:23.442Z,469.00
2023-03-19T01:05:53.439Z,470.00
2023-03-19T01:06:23.572Z,468.00
2023-03-19T01:06:53.555Z,470.00
2023-03-19T01:07:23.670Z,471.00
2023-03-19T01:07:53.778Z,473.00
2023-03-19T01:08:23.889Z,474.00
2023-03-19T01:08:54.001Z,474.00
2023-03-19T01:09:24.120Z,476.00
2023-03-19T01:09:54.124Z,473.00
2023-03-19T01:10:24.128Z,472.00
2023-03-19T01:10:54.192Z,471.00
2023-03-19T01:11:24.167Z,470.00
2023-03-19T01:11:54.159Z,470.00
2023-03-19T01:12:24.276Z,471.00
2023-03-19T01:12:54.312Z,472.00
2023-03-19T01:13:24.294Z,472.00
2023-03-19T01:13:54.278Z,470.00
2023-03-19T01:14:24.388Z,469.00
2023-03-19T01:14:54.497Z,470.00
2023-03-19T01:15:24.609Z,469.00
2023-03-19T01:15:54.733Z,469.00
2023-03-19T01:16:24.721Z,470.00
2023-03-19T01:16:54.828Z,469.00
2023-03-19T01:17:24.901Z,467.00
2023-03-19T01:17:54.977Z,467.00
2023-03-19T01:18:25.044Z,467.00
2023-03-19T01:18:55.148Z,468.00
2023-03-19T01:19:25.199Z,468.00
2023-03-19T01:19:55.280Z,467.00
2023-03-19T01:20:25.360Z,468.00
2023-03-19T01:20:55.439Z,466.00
2023-03-19T01:21:25.503Z,466.00
2023-03-19T01:21:55.578Z,465.00
2023-03-19T01:22:25.659Z,465.00
2023-03-19T01:22:55.733Z,464.00
2023-03-19T01:23:25.807Z,465.00
2023-03-19T01:23:55.929Z,465.00
2023-03-19T01:24:25.980Z,466.00
2023-03-19T01:24:56.065Z,467.00
2023-03-19T01:25:26.136Z,466.00
2023-03-19T01:25:56.203Z,465.00
2023-03-19T01:26:26.343Z,464.00
2023-03-19T01:26:56.384Z,463.00
2023-03-19T01:27:26.525Z,463.00
2023-03-19T01:27:56.558Z,464.00
2023-03-19T01:28:26.543Z,465.00
2023-03-19T01:28:56.656Z,466.00
2023-03-19T01:29:26.777Z,465.00
2023-03-19T01:29:56.881Z,466.00
2023-03-19T01:30:26.994Z,468.00
2023-03-19T01:30:57.139Z,469.00
2023-03-19T01:31:27.285Z,470.00
2023-03-19T01:31:57.300Z,471.00
2023-03-19T01:32:27.402Z,471.00
2023-03-19T01:32:57.589Z,469.00
2023-03-19T01:33:27.549Z,467.00
2023-03-19T01:33:57.662Z,467.00
2023-03-19T01:34:27.780Z,467.00
2023-03-19T01:34:57.795Z,465.00
2023-03-19T01:35:27.821Z,464.00
2023-03-19T01:35:57.849Z,464.00
2023-03-19T01:36:27.933Z,465.00
2023-03-19T01:36:57.906Z,466.00
2023-03-19T01:37:28.022Z,466.00
2023-03-19T01:37:58.195Z,467.00
2023-03-19T01:38:28.193Z,467.00
2023-03-19T01:38:58.307Z,471.00
2023-03-19T01:39:28.419Z,470.00
2023-03-19T01:39:58.538Z,470.00
2023-03-19T01:40:28.648Z,469.00
2023-03-19T01:40:58.760Z,468.00
2023-03-19T01:41:28.851Z,471.00
2023-03-19T01:41:58.816Z,471.00
2023-03-19T01:42:28.934Z,472.00
2023-03-19T01:42:59.056Z,472.00
2023-03-19T01:43:29.156Z,471.00
2023-03-19T01:43:59.281Z,470.00
2023-03-19T01:44:29.390Z,469.00
2023-03-19T01:44:59.503Z,469.00
2023-03-19T01:45:29.615Z,470.00
2023-03-19T01:45:59.854Z,467.00
2023-03-19T01:46:29.802Z,466.00
2023-03-19T01:46:59.784Z,468.00
2023-03-19T01:47:29.937Z,469.00
2023-03-19T01:47:59.933Z,469.00
2023-03-19T01:48:30.078Z,470.00
2023-03-19T01:49:00.080Z,469.00
2023-03-19T01:49:30.047Z,471.00
2023-03-19T01:50:00.176Z,469.00
2023-03-19T01:50:30.165Z,467.00
2023-03-19T01:51:00.279Z,467.00
2023-03-19T01:51:30.391Z,469.00
2023-03-19T01:52:00.497Z,471.00
2023-03-19T01:52:30.612Z,472.00
2023-03-19T01:53:00.723Z,472.00
2023-03-19T01:53:30.837Z,473.00
2023-03-19T01:54:00.955Z,473.00
2023-03-19T01:54:31.074Z,473.00
2023-03-19T01:55:01.080Z,470.00
2023-03-19T01:55:31.071Z,469.00
2023-03-19T01:56:01.182Z,468.00
2023-03-19T01:56:31.319Z,470.00
2023-03-19T01:57:01.424Z,472.00
2023-03-19T01:57:31.512Z,472.00
2023-03-19T01:58:01.622Z,473.00
2023-03-19T01:58:31.755Z,473.00
2023-03-19T01:59:01.861Z,474.00
2023-03-19T01:59:31.962Z,473.00
2023-03-19T02:00:02.100Z,472.00
2023-03-19T02:00:32.327Z,472.00
2023-03-19T02:01:02.185Z,472.00
2023-03-19T02:01:32.324Z,471.00
2023-03-19T02:02:02.495Z,472.00
2023-03-19T02:02:32.393Z,471.00
2023-03-19T02:03:02.519Z,470.00
2023-03-19T02:03:32.622Z,471.00
2023-03-19T02:04:02.767Z,470.00
2023-03-19T02:04:32.762Z,470.00
2023-03-19T02:05:02.881Z,470.00
2023-03-19T02:05:32.858Z,470.00
2023-03-19T02:06:02.976Z,469.00
2023-03-19T02:06:33.099Z,471.00
2023-03-19T02:07:03.201Z,472.00
2023-03-19T02:07:33.314Z,470.00
2023-03-19T02:08:03.428Z,470.00
2023-03-19T02:08:33.537Z,470.00
2023-03-19T02:09:03.651Z,470.00
2023-03-19T02:09:33.756Z,468.00
2023-03-19T02:10:03.887Z,467.00
2023-03-19T02:10:34.213Z,468.00
2023-03-19T02:11:03.957Z,467.00
2023-03-19T02:11:33.957Z,467.00
2023-03-19T02:12:04.038Z,466.00
2023-03-19T02:12:34.158Z,466.00
2023-03-19T02:13:04.338Z,467.00
2023-03-19T02:13:34.325Z,467.00
2023-03-19T02:14:04.460Z,468.00
2023-03-19T02:14:34.566Z,470.00
2023-03-19T02:15:04.665Z,469.00
2023-03-19T02:15:34.779Z,470.00
2023-03-19T02:16:04.961Z,470.00
2023-03-19T02:16:35.052Z,468.00
2023-03-19T02:17:05.004Z,470.00
2023-03-19T02:17:35.085Z,470.00
2023-03-19T02:18:05.156Z,470.00
2023-03-19T02:18:35.246Z,471.00
2023-03-19T02:19:05.307Z,472.00
2023-03-19T02:19:35.375Z,471.00
2023-03-19T02:20:05.507Z,469.00
2023-03-19T02:20:35.863Z,470.00
2023-03-19T02:21:05.632Z,471.00
2023-03-19T02:21:35.679Z,472.00
2023-03-19T02:22:05.747Z,472.00
2023-03-19T02:22:35.819Z,472.00
2023-03-19T02:23:05.895Z,471.00
2023-03-19T02:23:35.975Z,472.00
2023-03-19T02:24:06.060Z,472.00
2023-03-19T02:24:36.114Z,473.00
2023-03-19T02:25:06.185Z,471.00
2023-03-19T02:25:36.256Z,473.00
2023-03-19T02:26:06.337Z,473.00
2023-03-19T02:26:36.460Z,474.00
2023-03-19T02:27:06.447Z,475.00
2023-03-19T02:27:36.537Z,474.00
2023-03-19T02:28:06.646Z,475.00
2023-03-19T02:28:36.757Z,475.00
2023-03-19T02:29:06.869Z,475.00
2023-03-19T02:29:36.980Z,474.00
2023-03-19T02:30:07.091Z,475.00
2023-03-19T02:30:37.211Z,475.00
2023-03-19T02:31:07.230Z,474.00
2023-03-19T02:31:37.328Z,469.00
2023-03-19T02:32:07.314Z,470.00
2023-03-19T02:32:37.474Z,468.00
2023-03-19T02:33:07.548Z,469.00
2023-03-19T02:33:37.554Z,470.00
2023-03-19T02:34:07.668Z,468.00
2023-03-19T02:34:37.790Z,468.00
2023-03-19T02:35:07.895Z,471.00
2023-03-19T02:35:38.031Z,473.00
2023-03-19T02:36:08.033Z,473.00
2023-03-19T02:36:38.043Z,473.00
2023-03-19T02:37:08.168Z,473.00
2023-03-19T02:37:38.268Z,471.00
2023-03-19T02:38:08.380Z,469.00
2023-03-19T02:38:38.490Z,469.00
2023-03-19T02:39:08.635Z,468.00
2023-03-19T02:39:38.725Z,470.00
2023-03-19T02:40:08.843Z,470.00
2023-03-19T02:40:38.954Z,471.00
2023-03-19T02:41:09.069Z,470.00
2023-03-19T02:41:39.177Z,472.00
2023-03-19T02:42:09.296Z,471.00
2023-03-19T02:42:39.382Z,473.00
2023-03-19T02:43:09.504Z,472.00
2023-03-19T02:43:39.606Z,473.00
2023-03-19T02:44:09.717Z,472.00
2023-03-19T02:44:39.827Z,471.00
2023-03-19T02:45:09.939Z,472.00
2023-03-19T02:45:40.052Z,471.00
2023-03-19T02:46:10.263Z,472.00
2023-03-19T02:46:40.263Z,473.00
2023-03-19T02:47:10.229Z,475.00
2023-03-19T02:47:40.338Z,475.00
2023-03-19T02:48:10.460Z,477.00
2023-03-19T02:48:40.573Z,478.00
2023-03-19T02:49:10.688Z,476.00
2023-03-19T02:49:40.797Z,474.00
2023-03-19T02:50:10.908Z,472.00
2023-03-19T02:50:41.025Z,472.00
2023-03-19T02:51:11.014Z,468.00
2023-03-19T02:51:41.127Z,469.00
2023-03-19T02:52:11.241Z,467.00
2023-03-19T02:52:41.359Z,466.00
2023-03-19T02:53:11.457Z,466.00
2023-03-19T02:53:41.596Z,465.00
2023-03-19T02:54:11.606Z,465.00
2023-03-19T02:54:41.722Z,467.00
2023-03-19T02:55:11.826Z,467.00
2023-03-19T02:55:41.948Z,468.00
2023-03-19T02:56:11.936Z,467.00
2023-03-19T02:56:42.047Z,467.00
2023-03-19T02:57:12.206Z,467.00
2023-03-19T02:57:42.159Z,466.00
2023-03-19T02:58:12.271Z,464.00
2023-03-19T02:58:42.390Z,464.00
2023-03-19T02:59:13.517Z,463.00
2023-03-19T02:59:42.598Z,463.00
2023-03-19T03:00:12.726Z,461.00
2023-03-19T03:00:42.904Z,463.00
2023-03-19T03:01:12.958Z,464.00
2023-03-19T03:01:43.044Z,466.00
2023-03-19T03:02:13.094Z,468.00
2023-03-19T03:02:43.070Z,467.00
2023-03-19T03:03:13.196Z,468.00
2023-03-19T03:03:43.179Z,468.00
2023-03-19T03:04:13.295Z,468.00
2023-03-19T03:04:43.408Z,469.00
2023-03-19T03:05:13.571Z,470.00
2023-03-19T03:05:43.635Z,468.00
2023-03-19T03:06:13.620Z,468.00
2023-03-19T03:06:43.732Z,468.00
2023-03-19T03:07:13.844Z,470.00
2023-03-19T03:07:43.956Z,470.00
2023-03-19T03:08:14.070Z,469.00
2023-03-19T03:08:44.185Z,469.00
2023-03-19T03:09:14.294Z,469.00
2023-03-19T03:09:44.400Z,468.00
2023-03-19T03:10:14.518Z,467.00
2023-03-19T03:10:44.647Z,468.00
2023-03-19T03:11:14.756Z,469.00
2023-03-19T03:11:44.858Z,470.00
2023-03-19T03:12:14.968Z,467.00
2023-03-19T03:12:45.101Z,466.00
2023-03-19T03:13:15.204Z,467.00
2023-03-19T03:13:45.323Z,467.00
2023-03-19T03:14:15.408Z,466.00
2023-03-19T03:14:45.385Z,466.00
2023-03-19T03:15:15.491Z,468.00
2023-03-19T03:15:45.641Z,467.00
2023-03-19T03:16:15.740Z,467.00
2023-03-19T03:16:45.829Z,466.00
2023-03-19T03:17:15.794Z,465.00
2023-03-19T03:17:45.879Z,465.00
2023-03-19T03:18:15.967Z,465.00
2023-03-19T03:18:46.028Z,464.00
2023-03-19T03:19:16.131Z,465.00
2023-03-19T03:19:46.181Z,465.00
2023-03-19T03:20:16.258Z,465.00
2023-03-19T03:20:46.345Z,465.00
2023-03-19T03:21:16.416Z,464.00
2023-03-19T03:21:46.508Z,464.00
2023-03-19T03:22:16.582Z,465.00
2023-03-19T03:22:46.652Z,465.00
2023-03-19T03:23:16.727Z,464.00
2023-03-19T03:23:46.796Z,465.00
2023-03-19T03:24:16.871Z,465.00
2023-03-19T03:24:46.945Z,467.00
2023-03-19T03:25:17.020Z,469.00
2023-03-19T03:25:47.104Z,460.00
2023-03-19T03:26:17.175Z,460.00
2023-03-19T03:26:47.261Z,458.00
2023-03-19T03:27:17.356Z,460.00
2023-03-19T03:27:47.502Z,458.00
2023-03-19T03:28:17.586Z,459.00
2023-03-19T03:28:47.699Z,459.00
2023-03-19T03:29:17.813Z,459.00
2023-03-19T03:29:47.925Z,458.00
2023-03-19T03:30:18.043Z,459.00
2023-03-19T03:30:48.167Z,460.00
2023-03-19T03:31:18.208Z,459.00
2023-03-19T03:31:48.280Z,457.00
2023-03-19T03:32:18.255Z,457.00
2023-03-19T03:32:48.470Z,457.00
2023-03-19T03:33:18.523Z,457.00
2023-03-19T03:33:48.691Z,457.00
2023-03-19T03:34:18.657Z,458.00
2023-03-19T03:34:48.768Z,458.00
2023-03-19T03:35:18.886Z,458.00
2023-03-19T03:35:49.208Z,459.00
2023-03-19T03:36:19.054Z,457.00
2023-03-19T03:36:49.147Z,455.00
2023-03-19T03:37:19.266Z,454.00
2023-03-19T03:37:49.374Z,457.00
2023-03-19T03:38:19.492Z,458.00
2023-03-19T03:38:49.599Z,457.00
2023-03-19T03:39:19.720Z,457.00
2023-03-19T03:39:49.838Z,458.00
2023-03-19T03:40:19.942Z,460.00
2023-03-19T03:40:50.039Z,459.00
2023-03-19T03:41:20.153Z,458.00
2023-03-19T03:41:50.264Z,457.00
2023-03-19T03:42:20.376Z,457.00
2023-03-19T03:42:50.504Z,458.00
2023-03-19T03:43:20.596Z,457.00
2023-03-19T03:43:50.709Z,449.00
2023-03-19T03:44:20.819Z,456.00
2023-03-19T03:44:50.926Z,458.00
2023-03-19T03:45:21.032Z,457.00
2023-03-19T03:45:51.226Z,459.00
2023-03-19T03:46:21.201Z,459.00
2023-03-19T03:46:51.308Z,461.00
2023-03-19T03:47:21.420Z,463.00
2023-03-19T03:47:51.531Z,463.00
2023-03-19T03:48:21.647Z,465.00
2023-03-19T03:48:51.753Z,466.00
2023-03-19T03:49:21.867Z,466.00
2023-03-19T03:49:51.979Z,466.00
2023-03-19T03:50:22.096Z,467.00
2023-03-19T03:50:52.248Z,466.00
2023-03-19T03:51:22.211Z,464.00
2023-03-19T03:51:52.322Z,465.00
2023-03-19T03:52:22.437Z,465.00
2023-03-19T03:52:52.563Z,466.00
2023-03-19T03:53:22.664Z,464.00
2023-03-19T03:53:52.785Z,464.00
2023-03-19T03:54:22.856Z,464.00
2023-03-19T03:54:52.962Z,464.00
2023-03-19T03:55:23.075Z,464.00
2023-03-19T03:55:53.212Z,463.00
2023-03-19T03:56:23.196Z,465.00
2023-03-19T03:56:53.317Z,465.00
2023-03-19T03:57:23.305Z,466.00
2023-03-19T03:57:53.435Z,466.00
2023-03-19T03:58:23.542Z,464.00
2023-03-19T03:58:53.523Z,465.00
2023-03-19T03:59:23.635Z,464.00
2023-03-19T03:59:53.748Z,463.00
2023-03-19T04:00:23.854Z,462.00
2023-03-19T04:00:53.983Z,462.00
2023-03-19T04:01:23.981Z,461.00
2023-03-19T04:01:54.125Z,461.00
2023-03-19T04:02:24.129Z,462.00
2023-03-19T04:02:54.165Z,461.00
2023-03-19T04:03:24.232Z,460.00
2023-03-19T04:03:54.156Z,459.00
2023-03-19T04:04:24.272Z,460.00
2023-03-19T04:04:54.373Z,462.00
2023-03-19T04:05:24.484Z,462.00
2023-03-19T04:05:54.624Z,463.00
2023-03-19T04:06:24.619Z,463.00
2023-03-19T04:06:54.727Z,462.00
2023-03-19T04:07:24.838Z,463.00
2023-03-19T04:07:54.950Z,464.00
2023-03-19T04:08:25.071Z,465.00
2023-03-19T04:08:55.164Z,467.00
2023-03-19T04:09:25.287Z,468.00
2023-03-19T04:09:55.395Z,467.00
2023-03-19T04:10:25.505Z,468.00
2023-03-19T04:10:55.631Z,469.00
2023-03-19T04:11:25.739Z,469.00
2023-03-19T04:11:55.845Z,467.00
2023-03-19T04:12:25.952Z,467.00
2023-03-19T04:12:56.085Z,466.00
2023-03-19T04:13:26.173Z,466.00
2023-03-19T04:13:56.280Z,465.00
2023-03-19T04:14:26.442Z,466.00
2023-03-19T04:14:56.430Z,464.00
2023-03-19T04:15:26.540Z,466.00
2023-03-19T04:15:56.694Z,466.00
2023-03-19T04:16:26.711Z,465.00
2023-03-19T04:16:56.722Z,465.00
2023-03-19T04:18:03.387Z,462.00
2023-03-19T04:18:33.483Z,465.00
2023-03-19T04:19:03.565Z,458.00
2023-03-19T04:19:33.628Z,459.00
2023-03-19T04:20:03.700Z,458.00
2023-03-19T04:20:34.017Z,459.00
2023-03-19T04:21:03.806Z,460.00
2023-03-19T04:21:33.898Z,459.00
2023-03-19T04:22:03.971Z,460.00
2023-03-19T04:22:34.040Z,460.00
2023-03-19T04:23:04.114Z,459.00
2023-03-19T04:23:34.187Z,457.00
2023-03-19T04:24:04.262Z,457.00
2023-03-19T04:24:34.340Z,458.00
2023-03-19T04:25:04.406Z,458.00
2023-03-19T04:25:34.479Z,460.00
2023-03-19T04:26:04.570Z,461.00
2023-03-19T04:26:34.638Z,461.00
2023-03-19T04:27:04.714Z,462.00
2023-03-19T04:27:34.783Z,458.00
2023-03-19T04:28:04.924Z,459.00
2023-03-19T04:28:35.012Z,459.00
2023-03-19T04:29:05.136Z,458.00
2023-03-19T04:29:35.251Z,457.00
2023-03-19T04:30:05.345Z,455.00
2023-03-19T04:30:35.865Z,453.00
2023-03-19T04:31:05.673Z,449.00
2023-03-19T04:31:35.655Z,450.00
2023-03-19T04:32:05.772Z,448.00
2023-03-19T04:32:35.984Z,448.00
2023-03-19T04:33:06.039Z,450.00
2023-03-19T04:33:36.033Z,451.00
2023-03-19T04:34:06.143Z,452.00
2023-03-19T04:34:36.163Z,451.00
2023-03-19T04:35:06.285Z,452.00
2023-03-19T04:35:36.517Z,452.00
2023-03-19T04:36:06.509Z,455.00
2023-03-19T04:36:36.603Z,457.00
2023-03-19T04:37:06.719Z,458.00
2023-03-19T04:37:36.835Z,456.00
2023-03-19T04:38:06.941Z,458.00
2023-03-19T04:38:37.065Z,460.00
2023-03-19T04:39:07.178Z,462.00
2023-03-19T04:39:37.291Z,462.00
2023-03-19T04:40:07.406Z,462.00
2023-03-19T04:40:37.526Z,462.00
2023-03-19T04:41:07.643Z,461.00
2023-03-19T04:41:37.627Z,458.00
2023-03-19T04:42:07.740Z,457.00
2023-03-19T04:42:37.865Z,458.00
2023-03-19T04:43:07.987Z,457.00
2023-03-19T04:43:38.086Z,458.00
2023-03-19T04:44:08.191Z,457.00
2023-03-19T04:44:38.302Z,458.00
2023-03-19T04:45:08.466Z,458.00
2023-03-19T04:45:38.454Z,459.00
2023-03-19T04:46:08.592Z,458.00
2023-03-19T04:46:38.600Z,458.00
2023-03-19T04:47:08.707Z,457.00
2023-03-19T04:47:38.832Z,458.00
2023-03-19T04:48:08.933Z,459.00
2023-03-19T04:48:39.044Z,459.00
2023-03-19T04:49:09.165Z,458.00
2023-03-19T04:49:39.267Z,458.00
2023-03-19T04:50:09.398Z,457.00
2023-03-19T04:50:39.512Z,457.00
2023-03-19T04:51:09.608Z,456.00
2023-03-19T04:51:39.720Z,455.00
2023-03-19T04:52:09.842Z,455.00
2023-03-19T04:52:39.945Z,454.00
2023-03-19T04:53:10.064Z,454.00
2023-03-19T04:53:40.170Z,455.00
2023-03-19T04:54:10.291Z,457.00
2023-03-19T04:54:40.402Z,458.00
2023-03-19T04:55:10.530Z,459.00
2023-03-19T04:55:40.620Z,458.00
2023-03-19T04:56:10.732Z,459.00
2023-03-19T04:56:40.849Z,459.00
2023-03-19T04:57:10.969Z,459.00
2023-03-19T04:57:41.125Z,458.00
2023-03-19T04:58:11.112Z,458.00
2023-03-19T04:58:41.077Z,456.00
2023-03-19T04:59:11.190Z,455.00
2023-03-19T04:59:41.301Z,454.00
2023-03-19T05:00:11.414Z,456.00
2023-03-19T05:00:41.528Z,456.00
2023-03-19T05:01:11.651Z,457.00
2023-03-19T05:01:41.756Z,458.00
2023-03-19T05:02:11.675Z,457.00
2023-03-19T05:02:41.783Z,457.00
2023-03-19T05:03:11.904Z,456.00
2023-03-19T05:03:42.041Z,457.00
2023-03-19T05:04:12.101Z,458.00
2023-03-19T05:04:42.095Z,460.00
2023-03-19T05:05:12.212Z,460.00
2023-03-19T05:05:42.323Z,459.00
2023-03-19T05:06:12.438Z,460.00
2023-03-19T05:06:42.429Z,457.00
2023-03-19T05:07:12.536Z,457.00
2023-03-19T05:07:42.651Z,457.00
2023-03-19T05:08:12.767Z,458.00
2023-03-19T05:08:42.868Z,457.00
2023-03-19T05:09:12.867Z,456.00
2023-03-19T05:09:42.984Z,457.00
2023-03-19T05:10:12.973Z,455.00
2023-03-19T05:10:43.082Z,455.00
2023-03-19T05:11:13.214Z,455.00
2023-03-19T05:11:43.189Z,457.00
2023-03-19T05:12:13.299Z,457.00
2023-03-19T05:12:43.409Z,459.00
2023-03-19T05:13:13.548Z,458.00
2023-03-19T05:13:43.652Z,457.00
2023-03-19T05:14:13.749Z,458.00
2023-03-19T05:14:43.863Z,459.00
2023-03-19T05:15:13.978Z,459.00
2023-03-19T05:15:44.043Z,457.00
2023-03-19T05:16:14.089Z,456.00
2023-03-19T05:16:44.075Z,454.00
2023-03-19T05:17:14.181Z,454.00
2023-03-19T05:17:44.285Z,454.00
2023-03-19T05:18:14.355Z,453.00
2023-03-19T05:18:44.426Z,452.00
2023-03-19T05:19:14.518Z,453.00
2023-03-19T05:19:44.664Z,453.00
2023-03-19T05:20:14.590Z,455.00
2023-03-19T05:20:44.667Z,456.00
2023-03-19T05:21:14.804Z,456.00
2023-03-19T05:21:44.856Z,456.00
2023-03-19T05:22:14.952Z,456.00
2023-03-19T05:22:45.020Z,456.00
2023-03-19T05:23:15.087Z,456.00
2023-03-19T05:23:45.157Z,455.00
2023-03-19T05:24:15.250Z,457.00
2023-03-19T05:24:45.315Z,462.00
2023-03-19T05:25:15.383Z,461.00
2023-03-19T05:25:45.470Z,460.00
2023-03-19T05:26:15.503Z,460.00
2023-03-19T05:26:45.572Z,460.00
2023-03-19T05:27:15.645Z,458.00
2023-03-19T05:27:45.739Z,459.00
2023-03-19T05:28:15.875Z,458.00
2023-03-19T05:28:45.964Z,457.00
2023-03-19T05:29:16.086Z,455.00
2023-03-19T05:29:46.184Z,456.00
2023-03-19T05:30:16.309Z,456.00
2023-03-19T05:30:46.594Z,454.00
2023-03-19T05:31:16.501Z,458.00
2023-03-19T05:31:46.489Z,459.00
2023-03-19T05:32:16.608Z,459.00
2023-03-19T05:32:46.992Z,459.00
2023-03-19T05:33:16.841Z,459.00
2023-03-19T05:33:46.815Z,459.00
2023-03-19T05:34:16.926Z,460.00
2023-03-19T05:34:47.032Z,460.00
2023-03-19T05:35:17.157Z,461.00
2023-03-19T05:35:47.306Z,459.00
2023-03-19T05:36:17.306Z,459.00
2023-03-19T05:36:47.295Z,460.00
2023-03-19T05:37:17.417Z,459.00
2023-03-19T05:37:47.410Z,460.00
2023-03-19T05:38:17.516Z,460.00
2023-03-19T05:38:47.628Z,459.00
2023-03-19T05:39:17.741Z,461.00
2023-03-19T05:39:47.862Z,460.00
2023-03-19T05:40:17.970Z,459.00
2023-03-19T05:40:48.081Z,460.00
2023-03-19T05:41:18.206Z,460.00
2023-03-19T05:41:48.197Z,461.00
2023-03-19T05:42:18.302Z,460.00
2023-03-19T05:42:48.416Z,462.00
2023-03-19T05:43:18.548Z,465.00
2023-03-19T05:43:48.679Z,467.00
2023-03-19T05:44:18.669Z,468.00
2023-03-19T05:44:48.748Z,467.00
2023-03-19T05:45:18.868Z,468.00
2023-03-19T05:45:48.988Z,466.00
2023-03-19T05:46:19.104Z,466.00
2023-03-19T05:46:49.077Z,466.00
2023-03-19T05:47:19.076Z,467.00
2023-03-19T05:47:49.191Z,467.00
2023-03-19T05:48:19.315Z,466.00
2023-03-19T05:48:49.304Z,465.00
2023-03-19T05:49:19.299Z,464.00
2023-03-19T05:49:49.409Z,463.00
2023-03-19T05:50:19.532Z,465.00
2023-03-19T05:50:49.674Z,465.00
2023-03-19T05:51:19.659Z,464.00
2023-03-19T05:51:49.859Z,463.00
2023-03-19T05:52:19.812Z,463.00
2023-03-19T05:52:49.927Z,464.00
2023-03-19T05:53:20.038Z,464.00
2023-03-19T05:53:50.160Z,466.00
2023-03-19T05:54:20.275Z,467.00
2023-03-19T05:54:50.377Z,467.00
2023-03-19T05:55:20.487Z,466.00
2023-03-19T05:55:50.618Z,465.00
2023-03-19T05:56:20.634Z,465.00
2023-03-19T05:56:50.620Z,464.00
2023-03-19T05:57:20.732Z,464.00
2023-03-19T05:57:50.842Z,463.00
2023-03-19T05:58:20.953Z,463.00
2023-03-19T05:58:51.087Z,463.00
2023-03-19T05:59:21.191Z,465.00
2023-03-19T05:59:51.294Z,467.00
2023-03-19T06:00:21.417Z,465.00
2023-03-19T06:00:51.543Z,465.00
2023-03-19T06:01:21.584Z,465.00
2023-03-19T06:01:51.579Z,465.00
2023-03-19T06:02:21.612Z,466.00
2023-03-19T06:02:51.728Z,466.00
2023-03-19T06:03:21.753Z,465.00
2023-03-19T06:03:51.916Z,464.00
2023-03-19T06:04:21.951Z,464.00
2023-03-19T06:04:51.986Z,464.00
2023-03-19T06:05:21.965Z,464.00
2023-03-19T06:05:51.973Z,464.00
2023-03-19T06:06:22.097Z,465.00
2023-03-19T06:06:52.085Z,465.00
2023-03-19T06:07:22.084Z,465.00
2023-03-19T06:07:52.200Z,465.00
2023-03-19T06:08:22.310Z,464.00
2023-03-19T06:08:52.421Z,463.00
2023-03-19T06:09:22.532Z,460.00
2023-03-19T06:09:52.643Z,460.00
2023-03-19T06:10:22.760Z,459.00
2023-03-19T06:10:52.877Z,459.00
2023-03-19T06:11:23.024Z,456.00
2023-03-19T06:11:53.016Z,455.00
2023-03-19T06:12:23.127Z,456.00
2023-03-19T06:12:53.233Z,456.00
2023-03-19T06:13:23.344Z,456.00
2023-03-19T06:13:53.492Z,454.00
2023-03-19T06:14:23.473Z,454.00
2023-03-19T06:14:53.449Z,455.00
2023-03-19T06:15:23.566Z,455.00
2023-03-19T06:15:53.743Z,454.00